Terminal Aerodrome Forecast
Issued by NWS

Home | Current Version | Previous Version | Text Only | Print | Product List | Glossary Off
Versions: 1 2 3 4 5 6 7 8 9 10 11 12 13 14 15 16 17

000
FTUS43 KBIS 090500
TAFDIK
TAF
KDIK 090537Z 0906/1006 VRB05KT 4SM FU SKC
     FM091500 13007KT P6SM FEW050
     FM100000 15012KT P6SM SKC=

USA.gov is the U.S. government's official web portal to all federal, state and local government web resources and services.